sensor_id;sensor_type;location;lat;lon;timestamp;temperature;humidity
58638;DHT22;54976;51.510;7.522;2023-02-01T00:02:46;6.50;99.90
58638;DHT22;54976;51.510;7.522;2023-02-01T00:05:57;6.50;99.90
58638;DHT22;54976;51.510;7.522;2023-02-01T00:08:58;6.60;99.90
58638;DHT22;54976;51.510;7.522;2023-02-01T00:11:58;6.70;99.90
58638;DHT22;54976;51.510;7.522;2023-02-01T00:14:59;6.70;99.90
58638;DHT22;54976;51.510;7.522;2023-02-01T00:18:00;6.70;99.90
58638;DHT22;54976;51.510;7.522;2023-02-01T00:21:01;6.60;99.90
58638;DHT22;54976;51.510;7.522;2023-02-01T00:24:02;6.70;99.90
58638;DHT22;54976;51.510;7.522;2023-02-01T00:27:03;6.80;99.90
58638;DHT22;54976;51.510;7.522;2023-02-01T00:30:04;6.80;99.90
58638;DHT22;54976;51.510;7.522;2023-02-01T00:33:05;6.80;99.90
58638;DHT22;54976;51.510;7.522;2023-02-01T00:36:07;6.90;99.90
58638;DHT22;54976;51.510;7.522;2023-02-01T00:39:08;6.90;99.90
58638;DHT22;54976;51.510;7.522;2023-02-01T00:42:09;6.90;99.80
58638;DHT22;54976;51.510;7.522;2023-02-01T00:45:10;6.80;99.60
58638;DHT22;54976;51.510;7.522;2023-02-01T00:48:10;6.90;99.10
58638;DHT22;54976;51.510;7.522;2023-02-01T00:51:14;6.80;98.50
58638;DHT22;54976;51.510;7.522;2023-02-01T00:54:15;6.80;98.40
58638;DHT22;54976;51.510;7.522;2023-02-01T00:57:15;6.80;97.70
58638;DHT22;54976;51.510;7.522;2023-02-01T01:00:17;6.80;97.10
58638;DHT22;54976;51.510;7.522;2023-02-01T01:03:18;6.80;97.00
58638;DHT22;54976;51.510;7.522;2023-02-01T01:06:25;6.90;96.30
58638;DHT22;54976;51.510;7.522;2023-02-01T01:09:26;6.90;96.10
58638;DHT22;54976;51.510;7.522;2023-02-01T01:12:26;6.90;95.30
58638;DHT22;54976;51.510;7.522;2023-02-01T01:15:27;6.90;95.30
58638;DHT22;54976;51.510;7.522;2023-02-01T01:18:28;6.90;95.10
58638;DHT22;54976;51.510;7.522;2023-02-01T01:21:30;6.90;94.40
58638;DHT22;54976;51.510;7.522;2023-02-01T01:24:30;6.90;94.10
58638;DHT22;54976;51.510;7.522;2023-02-01T01:27:31;6.90;93.70
58638;DHT22;54976;51.510;7.522;2023-02-01T01:30:33;6.90;93.50
58638;DHT22;54976;51.510;7.522;2023-02-01T01:33:34;6.90;93.30
58638;DHT22;54976;51.510;7.522;2023-02-01T01:36:34;6.90;93.40
58638;DHT22;54976;51.510;7.522;2023-02-01T01:39:35;6.80;93.60
58638;DHT22;54976;51.510;7.522;2023-02-01T01:42:39;6.80;93.50
58638;DHT22;54976;51.510;7.522;2023-02-01T01:45:40;6.80;93.60
58638;DHT22;54976;51.510;7.522;2023-02-01T01:48:41;6.80;93.50
58638;DHT22;54976;51.510;7.522;2023-02-01T01:51:49;6.90;93.60
58638;DHT22;54976;51.510;7.522;2023-02-01T01:54:53;6.80;94.00
58638;DHT22;54976;51.510;7.522;2023-02-01T01:58:04;6.80;94.40
58638;DHT22;54976;51.510;7.522;2023-02-01T02:01:07;6.70;94.70
58638;DHT22;54976;51.510;7.522;2023-02-01T02:04:07;6.70;94.70
58638;DHT22;54976;51.510;7.522;2023-02-01T02:07:11;6.60;95.00
58638;DHT22;54976;51.510;7.522;2023-02-01T02:10:15;6.60;95.10
58638;DHT22;54976;51.510;7.522;2023-02-01T02:13:16;6.60;95.30
58638;DHT22;54976;51.510;7.522;2023-02-01T02:19:49;6.60;95.80
58638;DHT22;54976;51.510;7.522;2023-02-01T02:27:00;6.60;95.90
58638;DHT22;54976;51.510;7.522;2023-02-01T02:43:22;6.70;95.70
58638;DHT22;54976;51.510;7.522;2023-02-01T02:46:47;6.70;95.40
58638;DHT22;54976;51.510;7.522;2023-02-01T03:00:49;6.80;94.30
58638;DHT22;54976;51.510;7.522;2023-02-01T03:04:09;6.80;94.00
58638;DHT22;54976;51.510;7.522;2023-02-01T03:14:00;6.80;93.90
58638;DHT22;54976;51.510;7.522;2023-02-01T03:17:14;6.80;93.30
58638;DHT22;54976;51.510;7.522;2023-02-01T03:20:18;6.80;93.20
58638;DHT22;54976;51.510;7.522;2023-02-01T03:23:23;6.70;93.20
58638;DHT22;54976;51.510;7.522;2023-02-01T03:26:26;6.70;93.10
58638;DHT22;54976;51.510;7.522;2023-02-01T03:29:33;6.70;92.80
58638;DHT22;54976;51.510;7.522;2023-02-01T03:32:40;6.80;92.90
58638;DHT22;54976;51.510;7.522;2023-02-01T03:42:59;6.70;92.30
58638;DHT22;54976;51.510;7.522;2023-02-01T03:46:06;6.70;92.20
58638;DHT22;54976;51.510;7.522;2023-02-01T03:49:11;6.70;92.10
58638;DHT22;54976;51.510;7.522;2023-02-01T03:52:21;6.70;92.10
58638;DHT22;54976;51.510;7.522;2023-02-01T03:55:24;6.70;92.00
58638;DHT22;54976;51.510;7.522;2023-02-01T03:58:25;6.70;92.30
58638;DHT22;54976;51.510;7.522;2023-02-01T04:01:28;6.70;92.30
58638;DHT22;54976;51.510;7.522;2023-02-01T04:04:28;6.70;92.30
58638;DHT22;54976;51.510;7.522;2023-02-01T04:07:29;6.70;92.20
58638;DHT22;54976;51.510;7.522;2023-02-01T04:10:29;6.70;92.10
58638;DHT22;54976;51.510;7.522;2023-02-01T04:13:30;6.70;91.90
58638;DHT22;54976;51.510;7.522;2023-02-01T04:16:31;6.70;92.10
58638;DHT22;54976;51.510;7.522;2023-02-01T04:19:32;6.70;91.80
58638;DHT22;54976;51.510;7.522;2023-02-01T04:22:32;6.70;92.50
58638;DHT22;54976;51.510;7.522;2023-02-01T04:25:33;6.70;92.20
58638;DHT22;54976;51.510;7.522;2023-02-01T04:28:34;6.80;92.20
58638;DHT22;54976;51.510;7.522;2023-02-01T04:31:34;6.80;92.10
58638;DHT22;54976;51.510;7.522;2023-02-01T04:34:36;6.80;92.20
58638;DHT22;54976;51.510;7.522;2023-02-01T04:37:36;6.80;92.50
58638;DHT22;54976;51.510;7.522;2023-02-01T04:40:37;6.90;92.10
58638;DHT22;54976;51.510;7.522;2023-02-01T04:43:38;6.90;92.30
58638;DHT22;54976;51.510;7.522;2023-02-01T04:46:38;6.80;92.30
58638;DHT22;54976;51.510;7.522;2023-02-01T04:49:39;6.90;92.50
58638;DHT22;54976;51.510;7.522;2023-02-01T04:52:39;6.80;92.90
58638;DHT22;54976;51.510;7.522;2023-02-01T04:55:42;6.70;93.10
58638;DHT22;54976;51.510;7.522;2023-02-01T04:58:42;6.80;93.00
58638;DHT22;54976;51.510;7.522;2023-02-01T05:01:43;6.80;92.70
58638;DHT22;54976;51.510;7.522;2023-02-01T05:04:44;6.90;92.90
58638;DHT22;54976;51.510;7.522;2023-02-01T05:07:46;7.00;93.20
58638;DHT22;54976;51.510;7.522;2023-02-01T05:10:47;6.90;93.50
58638;DHT22;54976;51.510;7.522;2023-02-01T05:13:47;7.00;93.40
58638;DHT22;54976;51.510;7.522;2023-02-01T05:16:48;6.90;93.30
58638;DHT22;54976;51.510;7.522;2023-02-01T05:19:48;6.90;93.20
58638;DHT22;54976;51.510;7.522;2023-02-01T05:22:49;6.90;93.50
58638;DHT22;54976;51.510;7.522;2023-02-01T05:25:50;6.90;93.30
58638;DHT22;54976;51.510;7.522;2023-02-01T05:28:51;6.80;93.80
58638;DHT22;54976;51.510;7.522;2023-02-01T05:31:51;6.90;93.50
58638;DHT22;54976;51.510;7.522;2023-02-01T05:34:52;6.80;93.70
58638;DHT22;54976;51.510;7.522;2023-02-01T05:37:53;6.80;94.00
58638;DHT22;54976;51.510;7.522;2023-02-01T05:40:53;6.80;93.90
58638;DHT22;54976;51.510;7.522;2023-02-01T05:43:54;6.80;94.00
58638;DHT22;54976;51.510;7.522;2023-02-01T05:46:54;6.80;93.80
58638;DHT22;54976;51.510;7.522;2023-02-01T05:49:55;6.80;93.70
58638;DHT22;54976;51.510;7.522;2023-02-01T05:52:55;6.80;93.80
58638;DHT22;54976;51.510;7.522;2023-02-01T05:55:56;6.80;93.70
58638;DHT22;54976;51.510;7.522;2023-02-01T05:58:57;6.80;93.80
58638;DHT22;54976;51.510;7.522;2023-02-01T06:01:57;6.80;93.70
58638;DHT22;54976;51.510;7.522;2023-02-01T06:04:58;6.80;93.70
58638;DHT22;54976;51.510;7.522;2023-02-01T06:07:58;6.80;94.00
58638;DHT22;54976;51.510;7.522;2023-02-01T06:11:04;6.70;94.20
58638;DHT22;54976;51.510;7.522;2023-02-01T06:14:05;6.80;93.90
58638;DHT22;54976;51.510;7.522;2023-02-01T06:17:08;6.80;94.10
58638;DHT22;54976;51.510;7.522;2023-02-01T06:20:09;6.80;94.00
58638;DHT22;54976;51.510;7.522;2023-02-01T06:23:10;6.80;94.00
58638;DHT22;54976;51.510;7.522;2023-02-01T06:26:11;6.80;94.10
58638;DHT22;54976;51.510;7.522;2023-02-01T06:29:12;6.70;94.10
58638;DHT22;54976;51.510;7.522;2023-02-01T06:32:13;6.80;94.30
58638;DHT22;54976;51.510;7.522;2023-02-01T06:35:13;6.80;94.20
58638;DHT22;54976;51.510;7.522;2023-02-01T06:38:16;6.80;94.10
58638;DHT22;54976;51.510;7.522;2023-02-01T06:41:17;6.80;94.00
58638;DHT22;54976;51.510;7.522;2023-02-01T06:44:18;6.80;94.20
58638;DHT22;54976;51.510;7.522;2023-02-01T06:47:18;6.80;93.90
58638;DHT22;54976;51.510;7.522;2023-02-01T06:50:19;6.80;94.00
58638;DHT22;54976;51.510;7.522;2023-02-01T06:53:20;6.80;94.00
58638;DHT22;54976;51.510;7.522;2023-02-01T06:56:21;6.80;94.10
58638;DHT22;54976;51.510;7.522;2023-02-01T06:59:22;6.80;93.90
58638;DHT22;54976;51.510;7.522;2023-02-01T07:02:23;6.90;93.80
58638;DHT22;54976;51.510;7.522;2023-02-01T07:05:23;6.90;93.70
58638;DHT22;54976;51.510;7.522;2023-02-01T07:08:25;6.90;93.60
58638;DHT22;54976;51.510;7.522;2023-02-01T07:11:26;6.90;93.70
58638;DHT22;54976;51.510;7.522;2023-02-01T07:14:28;6.90;93.70
58638;DHT22;54976;51.510;7.522;2023-02-01T07:17:29;6.90;93.60
58638;DHT22;54976;51.510;7.522;2023-02-01T07:20:29;6.90;93.70
58638;DHT22;54976;51.510;7.522;2023-02-01T07:23:30;6.90;93.80
58638;DHT22;54976;51.510;7.522;2023-02-01T07:26:31;6.90;93.50
58638;DHT22;54976;51.510;7.522;2023-02-01T07:29:32;6.90;94.10
58638;DHT22;54976;51.510;7.522;2023-02-01T07:32:32;6.90;93.40
58638;DHT22;54976;51.510;7.522;2023-02-01T07:35:33;7.00;93.30
58638;DHT22;54976;51.510;7.522;2023-02-01T07:38:33;6.90;93.40
58638;DHT22;54976;51.510;7.522;2023-02-01T07:41:34;7.00;93.50
58638;DHT22;54976;51.510;7.522;2023-02-01T07:44:35;6.90;93.30
58638;DHT22;54976;51.510;7.522;2023-02-01T07:47:35;7.00;93.30
58638;DHT22;54976;51.510;7.522;2023-02-01T07:50:36;7.00;93.40
58638;DHT22;54976;51.510;7.522;2023-02-01T07:53:37;7.00;93.60
58638;DHT22;54976;51.510;7.522;2023-02-01T07:56:38;7.10;93.40
58638;DHT22;54976;51.510;7.522;2023-02-01T07:59:38;7.00;93.20
58638;DHT22;54976;51.510;7.522;2023-02-01T08:03:04;7.10;93.30
58638;DHT22;54976;51.510;7.522;2023-02-01T08:06:04;7.10;93.60
58638;DHT22;54976;51.510;7.522;2023-02-01T08:09:07;7.10;93.30
58638;DHT22;54976;51.510;7.522;2023-02-01T08:12:11;7.10;93.30
58638;DHT22;54976;51.510;7.522;2023-02-01T08:15:11;7.10;93.10
58638;DHT22;54976;51.510;7.522;2023-02-01T08:18:12;7.10;93.50
58638;DHT22;54976;51.510;7.522;2023-02-01T08:21:19;7.10;93.40
58638;DHT22;54976;51.510;7.522;2023-02-01T08:24:20;7.10;93.40
58638;DHT22;54976;51.510;7.522;2023-02-01T08:27:21;7.10;93.20
58638;DHT22;54976;51.510;7.522;2023-02-01T08:30:22;7.10;93.40
58638;DHT22;54976;51.510;7.522;2023-02-01T08:33:23;7.10;93.30
58638;DHT22;54976;51.510;7.522;2023-02-01T08:36:24;7.10;93.20
58638;DHT22;54976;51.510;7.522;2023-02-01T08:39:26;7.10;93.40
58638;DHT22;54976;51.510;7.522;2023-02-01T08:42:26;7.20;93.50
58638;DHT22;54976;51.510;7.522;2023-02-01T08:45:46;7.20;93.50
58638;DHT22;54976;51.510;7.522;2023-02-01T08:48:47;7.20;93.50
58638;DHT22;54976;51.510;7.522;2023-02-01T08:51:48;7.30;93.20
58638;DHT22;54976;51.510;7.522;2023-02-01T08:54:48;7.30;93.00
58638;DHT22;54976;51.510;7.522;2023-02-01T08:57:49;7.30;93.00
58638;DHT22;54976;51.510;7.522;2023-02-01T09:00:49;7.30;93.00
58638;DHT22;54976;51.510;7.522;2023-02-01T09:03:51;7.40;93.10
58638;DHT22;54976;51.510;7.522;2023-02-01T09:06:51;7.50;93.40
58638;DHT22;54976;51.510;7.522;2023-02-01T09:09:52;7.50;92.90
58638;DHT22;54976;51.510;7.522;2023-02-01T09:12:54;7.50;92.90
58638;DHT22;54976;51.510;7.522;2023-02-01T09:15:55;7.50;93.00
58638;DHT22;54976;51.510;7.522;2023-02-01T09:18:56;7.40;93.40
58638;DHT22;54976;51.510;7.522;2023-02-01T09:21:57;7.40;93.30
58638;DHT22;54976;51.510;7.522;2023-02-01T09:24:57;7.50;93.00
58638;DHT22;54976;51.510;7.522;2023-02-01T09:27:58;7.50;93.00
58638;DHT22;54976;51.510;7.522;2023-02-01T09:30:59;7.60;92.50
58638;DHT22;54976;51.510;7.522;2023-02-01T09:34:00;7.60;92.40
58638;DHT22;54976;51.510;7.522;2023-02-01T09:37:01;7.50;92.70
58638;DHT22;54976;51.510;7.522;2023-02-01T09:40:02;7.60;92.50
58638;DHT22;54976;51.510;7.522;2023-02-01T09:46:22;7.60;92.20
58638;DHT22;54976;51.510;7.522;2023-02-01T09:49:31;7.60;92.20
58638;DHT22;54976;51.510;7.522;2023-02-01T09:52:40;7.60;91.70
58638;DHT22;54976;51.510;7.522;2023-02-01T09:55:46;7.70;92.10
58638;DHT22;54976;51.510;7.522;2023-02-01T10:01:49;7.60;91.70
58638;DHT22;54976;51.510;7.522;2023-02-01T10:04:53;7.70;91.50
58638;DHT22;54976;51.510;7.522;2023-02-01T10:28:20;7.70;91.30
58638;DHT22;54976;51.510;7.522;2023-02-01T10:31:25;7.70;91.20
58638;DHT22;54976;51.510;7.522;2023-02-01T10:34:30;7.80;91.00
58638;DHT22;54976;51.510;7.522;2023-02-01T10:37:33;7.80;91.00
58638;DHT22;54976;51.510;7.522;2023-02-01T10:40:34;7.80;91.00
58638;DHT22;54976;51.510;7.522;2023-02-01T10:43:36;7.90;90.90
58638;DHT22;54976;51.510;7.522;2023-02-01T10:46:38;7.90;91.40
58638;DHT22;54976;51.510;7.522;2023-02-01T10:56:14;7.90;91.00
58638;DHT22;54976;51.510;7.522;2023-02-01T10:59:24;7.90;91.00
58638;DHT22;54976;51.510;7.522;2023-02-01T11:05:43;7.80;90.50
58638;DHT22;54976;51.510;7.522;2023-02-01T11:08:47;7.80;91.00
58638;DHT22;54976;51.510;7.522;2023-02-01T11:14:50;7.70;91.10
58638;DHT22;54976;51.510;7.522;2023-02-01T11:17:51;7.80;91.20
58638;DHT22;54976;51.510;7.522;2023-02-01T11:20:53;7.80;90.80
58638;DHT22;54976;51.510;7.522;2023-02-01T11:23:55;7.80;90.80
58638;DHT22;54976;51.510;7.522;2023-02-01T11:27:02;7.80;90.90
58638;DHT22;54976;51.510;7.522;2023-02-01T11:30:04;7.70;90.80
58638;DHT22;54976;51.510;7.522;2023-02-01T11:33:05;7.80;91.20
58638;DHT22;54976;51.510;7.522;2023-02-01T11:36:35;7.80;90.70
58638;DHT22;54976;51.510;7.522;2023-02-01T11:39:37;7.90;90.50
58638;DHT22;54976;51.510;7.522;2023-02-01T11:42:57;7.90;90.50
58638;DHT22;54976;51.510;7.522;2023-02-01T11:46:00;7.90;90.90
58638;DHT22;54976;51.510;7.522;2023-02-01T11:49:23;8.00;90.30
58638;DHT22;54976;51.510;7.522;2023-02-01T12:24:37;7.30;96.30
58638;DHT22;54976;51.510;7.522;2023-02-01T12:51:36;7.40;96.60
58638;DHT22;54976;51.510;7.522;2023-02-01T12:54:47;7.60;95.50
58638;DHT22;54976;51.510;7.522;2023-02-01T13:08:08;7.70;94.90
58638;DHT22;54976;51.510;7.522;2023-02-01T13:14:46;7.80;95.10
58638;DHT22;54976;51.510;7.522;2023-02-01T13:17:49;7.80;95.60
58638;DHT22;54976;51.510;7.522;2023-02-01T13:21:08;7.70;96.40
58638;DHT22;54976;51.510;7.522;2023-02-01T13:27:26;7.60;97.40
58638;DHT22;54976;51.510;7.522;2023-02-01T13:30:48;7.50;97.50
58638;DHT22;54976;51.510;7.522;2023-02-01T13:44:12;7.70;95.80
58638;DHT22;54976;51.510;7.522;2023-02-01T13:47:24;7.80;95.40
58638;DHT22;54976;51.510;7.522;2023-02-01T13:53:31;7.80;94.60
58638;DHT22;54976;51.510;7.522;2023-02-01T13:56:41;7.90;94.70
58638;DHT22;54976;51.510;7.522;2023-02-01T13:59:48;7.90;93.90
58638;DHT22;54976;51.510;7.522;2023-02-01T14:06:01;8.00;93.70
58638;DHT22;54976;51.510;7.522;2023-02-01T14:09:30;8.00;93.60
58638;DHT22;54976;51.510;7.522;2023-02-01T14:12:49;8.10;93.50
58638;DHT22;54976;51.510;7.522;2023-02-01T14:19:09;8.20;93.30
58638;DHT22;54976;51.510;7.522;2023-02-01T14:25:32;8.20;93.80
58638;DHT22;54976;51.510;7.522;2023-02-01T14:28:36;8.10;93.30
58638;DHT22;54976;51.510;7.522;2023-02-01T14:34:49;8.20;93.20
58638;DHT22;54976;51.510;7.522;2023-02-01T14:37:58;8.20;93.10
58638;DHT22;54976;51.510;7.522;2023-02-01T14:44:31;8.30;94.40
58638;DHT22;54976;51.510;7.522;2023-02-01T14:47:33;8.20;95.10
58638;DHT22;54976;51.510;7.522;2023-02-01T14:50:38;8.00;96.70
58638;DHT22;54976;51.510;7.522;2023-02-01T14:53:43;7.90;97.20
58638;DHT22;54976;51.510;7.522;2023-02-01T14:56:45;7.80;97.70
58638;DHT22;54976;51.510;7.522;2023-02-01T14:59:46;7.80;97.70
58638;DHT22;54976;51.510;7.522;2023-02-01T15:02:48;7.80;97.30
58638;DHT22;54976;51.510;7.522;2023-02-01T15:05:59;7.90;96.50
58638;DHT22;54976;51.510;7.522;2023-02-01T15:09:26;8.00;95.80
58638;DHT22;54976;51.510;7.522;2023-02-01T15:12:28;8.00;95.40
58638;DHT22;54976;51.510;7.522;2023-02-01T15:15:30;8.10;95.40
58638;DHT22;54976;51.510;7.522;2023-02-01T15:18:36;8.10;95.30
58638;DHT22;54976;51.510;7.522;2023-02-01T15:21:49;8.10;94.60
58638;DHT22;54976;51.510;7.522;2023-02-01T15:24:58;8.20;94.10
58638;DHT22;54976;51.510;7.522;2023-02-01T15:27:58;8.30;94.00
58638;DHT22;54976;51.510;7.522;2023-02-01T15:31:02;8.30;93.80
58638;DHT22;54976;51.510;7.522;2023-02-01T15:34:03;8.30;93.70
58638;DHT22;54976;51.510;7.522;2023-02-01T15:37:04;8.10;96.30
58638;DHT22;54976;51.510;7.522;2023-02-01T15:43:12;7.70;98.20
58638;DHT22;54976;51.510;7.522;2023-02-01T15:49:37;7.70;97.80
58638;DHT22;54976;51.510;7.522;2023-02-01T15:52:39;7.80;97.50
58638;DHT22;54976;51.510;7.522;2023-02-01T15:55:42;7.80;97.30
58638;DHT22;54976;51.510;7.522;2023-02-01T15:58:45;7.90;96.30
58638;DHT22;54976;51.510;7.522;2023-02-01T16:01:49;8.00;95.30
58638;DHT22;54976;51.510;7.522;2023-02-01T16:04:50;8.10;95.10
58638;DHT22;54976;51.510;7.522;2023-02-01T16:07:58;8.10;95.00
58638;DHT22;54976;51.510;7.522;2023-02-01T16:14:10;8.20;94.10
58638;DHT22;54976;51.510;7.522;2023-02-01T16:17:11;8.20;94.10
58638;DHT22;54976;51.510;7.522;2023-02-01T16:20:12;8.20;94.20
58638;DHT22;54976;51.510;7.522;2023-02-01T16:23:12;8.10;94.80
58638;DHT22;54976;51.510;7.522;2023-02-01T16:26:13;8.20;94.50
58638;DHT22;54976;51.510;7.522;2023-02-01T16:29:14;8.20;94.30
58638;DHT22;54976;51.510;7.522;2023-02-01T16:32:18;8.30;93.80
58638;DHT22;54976;51.510;7.522;2023-02-01T16:35:27;8.30;93.60
58638;DHT22;54976;51.510;7.522;2023-02-01T16:38:28;8.30;93.90
58638;DHT22;54976;51.510;7.522;2023-02-01T16:41:29;8.30;94.20
58638;DHT22;54976;51.510;7.522;2023-02-01T16:44:29;8.20;94.40
58638;DHT22;54976;51.510;7.522;2023-02-01T16:47:30;8.30;95.10
58638;DHT22;54976;51.510;7.522;2023-02-01T16:50:32;8.20;95.70
58638;DHT22;54976;51.510;7.522;2023-02-01T16:53:33;8.10;96.50
58638;DHT22;54976;51.510;7.522;2023-02-01T16:56:34;7.90;98.30
58638;DHT22;54976;51.510;7.522;2023-02-01T16:59:36;7.80;99.00
58638;DHT22;54976;51.510;7.522;2023-02-01T17:02:37;7.70;99.60
58638;DHT22;54976;51.510;7.522;2023-02-01T17:05:38;7.60;99.90
58638;DHT22;54976;51.510;7.522;2023-02-01T17:08:42;7.60;99.90
58638;DHT22;54976;51.510;7.522;2023-02-01T17:11:43;7.40;99.90
58638;DHT22;54976;51.510;7.522;2023-02-01T17:14:43;7.30;99.90
58638;DHT22;54976;51.510;7.522;2023-02-01T17:17:44;7.20;99.90
58638;DHT22;54976;51.510;7.522;2023-02-01T17:20:45;7.00;99.90
58638;DHT22;54976;51.510;7.522;2023-02-01T17:23:47;6.80;99.90
58638;DHT22;54976;51.510;7.522;2023-02-01T17:26:48;6.70;99.90
58638;DHT22;54976;51.510;7.522;2023-02-01T17:29:50;6.60;99.90
58638;DHT22;54976;51.510;7.522;2023-02-01T17:32:53;6.40;99.90
58638;DHT22;54976;51.510;7.522;2023-02-01T17:35:56;6.30;99.90
58638;DHT22;54976;51.510;7.522;2023-02-01T17:38:57;6.20;99.90
58638;DHT22;54976;51.510;7.522;2023-02-01T17:41:59;6.10;99.90
58638;DHT22;54976;51.510;7.522;2023-02-01T17:45:10;6.10;99.90
58638;DHT22;54976;51.510;7.522;2023-02-01T17:48:14;6.00;99.90
58638;DHT22;54976;51.510;7.522;2023-02-01T17:51:24;5.90;99.90
58638;DHT22;54976;51.510;7.522;2023-02-01T17:54:24;6.00;99.90
58638;DHT22;54976;51.510;7.522;2023-02-01T17:57:26;5.90;99.90
58638;DHT22;54976;51.510;7.522;2023-02-01T18:00:26;6.00;99.90
58638;DHT22;54976;51.510;7.522;2023-02-01T18:03:29;6.00;99.90
58638;DHT22;54976;51.510;7.522;2023-02-01T18:06:33;6.10;99.90
58638;DHT22;54976;51.510;7.522;2023-02-01T18:09:34;6.20;99.90
58638;DHT22;54976;51.510;7.522;2023-02-01T18:12:34;6.20;99.90
58638;DHT22;54976;51.510;7.522;2023-02-01T18:15:35;6.30;99.90
58638;DHT22;54976;51.510;7.522;2023-02-01T18:18:35;6.40;99.90
58638;DHT22;54976;51.510;7.522;2023-02-01T18:21:39;6.40;99.90
58638;DHT22;54976;51.510;7.522;2023-02-01T18:24:41;6.50;99.90
58638;DHT22;54976;51.510;7.522;2023-02-01T18:27:42;6.50;99.90
58638;DHT22;54976;51.510;7.522;2023-02-01T18:30:44;6.50;99.90
58638;DHT22;54976;51.510;7.522;2023-02-01T18:33:46;6.50;99.90
58638;DHT22;54976;51.510;7.522;2023-02-01T18:36:48;6.50;99.90
58638;DHT22;54976;51.510;7.522;2023-02-01T18:39:49;6.30;99.90
58638;DHT22;54976;51.510;7.522;2023-02-01T18:42:50;6.30;99.90
58638;DHT22;54976;51.510;7.522;2023-02-01T18:45:50;6.20;99.90
58638;DHT22;54976;51.510;7.522;2023-02-01T18:48:51;6.20;99.90
58638;DHT22;54976;51.510;7.522;2023-02-01T18:51:52;6.10;99.90
58638;DHT22;54976;51.510;7.522;2023-02-01T18:54:52;6.10;99.90
58638;DHT22;54976;51.510;7.522;2023-02-01T18:57:53;6.10;99.90
58638;DHT22;54976;51.510;7.522;2023-02-01T19:00:55;6.10;99.90
58638;DHT22;54976;51.510;7.522;2023-02-01T19:03:56;6.10;99.90
58638;DHT22;54976;51.510;7.522;2023-02-01T19:06:56;6.10;99.90
58638;DHT22;54976;51.510;7.522;2023-02-01T19:09:57;6.00;99.90
58638;DHT22;54976;51.510;7.522;2023-02-01T19:12:58;6.00;99.90
58638;DHT22;54976;51.510;7.522;2023-02-01T19:16:03;6.00;99.90
58638;DHT22;54976;51.510;7.522;2023-02-01T19:19:04;6.10;99.90
58638;DHT22;54976;51.510;7.522;2023-02-01T19:22:05;6.10;99.90
58638;DHT22;54976;51.510;7.522;2023-02-01T19:25:07;6.10;99.90
58638;DHT22;54976;51.510;7.522;2023-02-01T19:28:08;6.00;99.90
58638;DHT22;54976;51.510;7.522;2023-02-01T19:31:09;6.00;99.90
58638;DHT22;54976;51.510;7.522;2023-02-01T19:34:10;6.00;99.90
58638;DHT22;54976;51.510;7.522;2023-02-01T19:37:10;6.00;99.90
58638;DHT22;54976;51.510;7.522;2023-02-01T19:40:14;6.00;99.90
58638;DHT22;54976;51.510;7.522;2023-02-01T19:43:15;6.00;99.90
58638;DHT22;54976;51.510;7.522;2023-02-01T19:46:16;6.00;99.90
58638;DHT22;54976;51.510;7.522;2023-02-01T19:49:16;6.10;99.90
58638;DHT22;54976;51.510;7.522;2023-02-01T19:52:17;6.10;99.90
58638;DHT22;54976;51.510;7.522;2023-02-01T19:55:18;6.20;99.90
58638;DHT22;54976;51.510;7.522;2023-02-01T19:58:18;6.30;99.90
58638;DHT22;54976;51.510;7.522;2023-02-01T20:01:19;6.30;99.90
58638;DHT22;54976;51.510;7.522;2023-02-01T20:04:20;6.30;99.90
58638;DHT22;54976;51.510;7.522;2023-02-01T20:07:21;6.40;99.90
58638;DHT22;54976;51.510;7.522;2023-02-01T20:10:22;6.30;99.90
58638;DHT22;54976;51.510;7.522;2023-02-01T20:13:22;6.40;99.90
58638;DHT22;54976;51.510;7.522;2023-02-01T20:16:23;6.40;99.90
58638;DHT22;54976;51.510;7.522;2023-02-01T20:19:24;6.40;99.90
58638;DHT22;54976;51.510;7.522;2023-02-01T20:22:24;6.40;99.90
58638;DHT22;54976;51.510;7.522;2023-02-01T20:25:25;6.40;99.90
58638;DHT22;54976;51.510;7.522;2023-02-01T20:28:25;6.40;99.90
58638;DHT22;54976;51.510;7.522;2023-02-01T20:31:27;6.30;99.90
58638;DHT22;54976;51.510;7.522;2023-02-01T20:34:29;6.40;99.90
58638;DHT22;54976;51.510;7.522;2023-02-01T20:37:29;6.40;99.90
58638;DHT22;54976;51.510;7.522;2023-02-01T20:40:30;6.40;99.90
58638;DHT22;54976;51.510;7.522;2023-02-01T20:43:31;6.40;99.90
58638;DHT22;54976;51.510;7.522;2023-02-01T20:46:32;6.30;99.90
58638;DHT22;54976;51.510;7.522;2023-02-01T20:49:32;6.30;99.90
58638;DHT22;54976;51.510;7.522;2023-02-01T20:52:34;6.30;99.90
58638;DHT22;54976;51.510;7.522;2023-02-01T20:55:34;6.30;99.90
58638;DHT22;54976;51.510;7.522;2023-02-01T20:58:35;6.30;99.90
58638;DHT22;54976;51.510;7.522;2023-02-01T21:01:36;6.30;99.90
58638;DHT22;54976;51.510;7.522;2023-02-01T21:04:37;6.30;99.90
58638;DHT22;54976;51.510;7.522;2023-02-01T21:07:37;6.40;99.90
58638;DHT22;54976;51.510;7.522;2023-02-01T21:10:39;6.30;99.90
58638;DHT22;54976;51.510;7.522;2023-02-01T21:13:42;6.30;99.90
58638;DHT22;54976;51.510;7.522;2023-02-01T21:16:49;6.30;99.90
58638;DHT22;54976;51.510;7.522;2023-02-01T21:19:50;6.30;99.90
58638;DHT22;54976;51.510;7.522;2023-02-01T21:22:50;6.30;99.90
58638;DHT22;54976;51.510;7.522;2023-02-01T21:25:51;6.30;99.90
58638;DHT22;54976;51.510;7.522;2023-02-01T21:28:53;6.30;99.90
58638;DHT22;54976;51.510;7.522;2023-02-01T21:31:54;6.30;99.90
58638;DHT22;54976;51.510;7.522;2023-02-01T21:34:54;6.30;99.90
58638;DHT22;54976;51.510;7.522;2023-02-01T21:37:57;6.30;99.90
58638;DHT22;54976;51.510;7.522;2023-02-01T21:40:58;6.30;99.90
58638;DHT22;54976;51.510;7.522;2023-02-01T21:44:17;6.30;99.90
58638;DHT22;54976;51.510;7.522;2023-02-01T21:47:20;6.20;99.90
58638;DHT22;54976;51.510;7.522;2023-02-01T21:50:21;6.20;99.90
58638;DHT22;54976;51.510;7.522;2023-02-01T21:53:22;6.10;99.90
58638;DHT22;54976;51.510;7.522;2023-02-01T21:56:23;6.20;99.90
58638;DHT22;54976;51.510;7.522;2023-02-01T21:59:23;6.20;99.90
58638;DHT22;54976;51.510;7.522;2023-02-01T22:02:24;6.10;99.90
58638;DHT22;54976;51.510;7.522;2023-02-01T22:05:25;6.20;99.90
58638;DHT22;54976;51.510;7.522;2023-02-01T22:08:26;6.10;99.90
58638;DHT22;54976;51.510;7.522;2023-02-01T22:11:27;6.10;99.90
58638;DHT22;54976;51.510;7.522;2023-02-01T22:14:28;6.00;99.90
58638;DHT22;54976;51.510;7.522;2023-02-01T22:17:29;6.10;99.90
58638;DHT22;54976;51.510;7.522;2023-02-01T22:20:30;6.00;99.90
58638;DHT22;54976;51.510;7.522;2023-02-01T22:23:31;6.00;99.90
58638;DHT22;54976;51.510;7.522;2023-02-01T22:26:31;5.90;99.90
58638;DHT22;54976;51.510;7.522;2023-02-01T22:29:32;5.90;99.90
58638;DHT22;54976;51.510;7.522;2023-02-01T22:32:34;5.90;99.90
58638;DHT22;54976;51.510;7.522;2023-02-01T22:35:36;5.80;99.90
58638;DHT22;54976;51.510;7.522;2023-02-01T22:38:36;5.90;99.90
58638;DHT22;54976;51.510;7.522;2023-02-01T22:41:37;5.90;99.90
58638;DHT22;54976;51.510;7.522;2023-02-01T22:44:37;5.90;99.90
58638;DHT22;54976;51.510;7.522;2023-02-01T22:47:38;5.90;99.90
58638;DHT22;54976;51.510;7.522;2023-02-01T22:50:39;5.80;99.90